Change the Weather History Date:

Saturday, January 4, 2014

  Actual Average (KMOT) Record (KMOT)
Temperature  
Mean Temperature -3 °F 12 °F  
Max Temperature 5 °F 21 °F 49 °F (2008)
Min Temperature -11 °F 3 °F -32 °F (1950)
Degree Days  
Heating Degree Days 68 53  
Month to date heating degree days 212  
Since 1 July heating degree days 3807  
Moisture  
Dew Point -12 °F    
Average Humidity 74    
Maximum Humidity 92    
Minimum Humidity 65    
Precipitation  
Precipitation 0.00 in 0.02 in 0.23 in (1949)
Month to date precipitation 0.07  
Year to date precipitation 0.07  
Sea Level Pressure  
Sea Level Pressure 30.08 in    
Wind  
Wind Speed 18 mph (NW)    
Max Wind Speed 26 mph    
Max Gust Speed 39 mph    
Visibility 10 miles    
Events Rain , Snow    
T = Trace of Precipitation, MM = Missing Value Source: NWS Daily Summary

Daily Weather History Graph

Daily Weather History Graph

Search for Another Location

Airport or City:

Trip Planner

Search our weather history database for the weather conditions in past years. The results will help you decide how hot, cold, wet, or windy it might be!

Date:

Astronomy

Jan. 04, 2014 Rise Set
Actual Time 8:40 AM CST 5:09 PM CST
Civil Twilight 8:04 AM CST 5:45 PM CST
Nautical Twilight 7:24 AM CST 6:25 PM CST
Astronomical Twilight 6:46 AM CST 7:02 PM CST
Moon 10:27 AM CST (1/4) 9:53 PM CST (1/4)
Length of Visible Light 9h 41m
Length of Day
8h 28m
Waxing Crescent, 15% of the Moon is Illuminated
Jan 4
Waxing Crescent
Jan 7
First Quarter
Jan 15
Full
Jan 23
Last Quarter
Jan 30
New

Hourly Weather History & Observations

Time (CST) Temp. Windchill Dew Point Humidity Pressure Visibility Wind Dir Wind Speed Gust Speed Precip Events Conditions
12:15 AM 5.0 °F -17.5 °F 1.4 °F 85% 29.78 in 8.0 mi NNW 25.3 mph 39.1 mph N/A Rain Light Freezing Rain
12:35 AM 5.0 °F -17.1 °F -0.4 °F 78% 29.81 in 10.0 mi NNW 24.2 mph 31.1 mph N/A   Overcast
12:55 AM 3.2 °F -20.3 °F -0.4 °F 85% 29.82 in 10.0 mi NNW 26.5 mph 33.4 mph N/A   Overcast
1:15 AM 1.4 °F -22.7 °F -2.2 °F 85% 29.81 in 10.0 mi NNW 26.5 mph 39.1 mph N/A   Overcast
1:35 AM -0.4 °F -23.8 °F -2.2 °F 92% 29.82 in 10.0 mi NNW 23.0 mph 36.8 mph N/A   Overcast
1:55 AM -0.4 °F -24.7 °F -4.0 °F 85% 29.83 in 10.0 mi NW 25.3 mph 35.7 mph N/A   Overcast
2:15 AM -0.4 °F -22.3 °F -4.0 °F 85% 29.86 in 10.0 mi NW 19.6 mph 34.5 mph N/A   Overcast
2:35 AM -0.4 °F -21.2 °F -5.8 °F 78% 29.88 in 10.0 mi NW 17.3 mph 28.8 mph N/A   Overcast
2:55 AM -2.2 °F -21.5 °F -7.6 °F 78% 29.90 in 10.0 mi NW 13.8 mph 25.3 mph N/A   Mostly Cloudy
3:15 AM -2.2 °F -23.5 °F -9.4 °F 71% 29.92 in 10.0 mi NW 17.3 mph 26.5 mph N/A   Partly Cloudy
3:35 AM -4.0 °F -23.7 °F -9.4 °F 78% 29.93 in 10.0 mi NW 13.8 mph 28.8 mph N/A   Clear
3:55 AM -4.0 °F -23.7 °F -9.4 °F 78% 29.95 in 10.0 mi NNW 13.8 mph 23.0 mph N/A   Clear
4:15 AM -4.0 °F -26.4 °F -9.4 °F 78% 29.95 in 10.0 mi NW 18.4 mph 27.6 mph N/A   Clear
4:35 AM -4.0 °F -25.8 °F -11.2 °F 71% 29.96 in 10.0 mi NW 17.3 mph 27.6 mph N/A   Clear
4:55 AM -5.8 °F -29.4 °F -11.2 °F 77% 29.97 in 10.0 mi NW 19.6 mph 23.0 mph N/A   Clear
5:15 AM -5.8 °F -25.2 °F - N/A% 29.98 in 10.0 mi NW 12.7 mph 24.2 mph N/A   Clear
5:35 AM -7.6 °F -29.1 °F -13.0 °F 77% 29.98 in 10.0 mi NW 15.0 mph 21.9 mph N/A   Scattered Clouds
5:55 AM -7.6 °F -29.8 °F -13.0 °F 77% 29.97 in 10.0 mi NW 16.1 mph 23.0 mph N/A   Scattered Clouds
6:15 AM -7.6 °F -31.7 °F -13.0 °F 77% 29.99 in 10.0 mi NW 19.6 mph 27.6 mph N/A   Clear
6:35 AM -7.6 °F -31.1 °F -13.0 °F 77% 30.00 in 10.0 mi NW 18.4 mph 26.5 mph N/A   Clear
6:55 AM -7.6 °F -26.6 °F -13.0 °F 77% 30.03 in 10.0 mi NW 11.5 mph 18.4 mph N/A   Clear
7:15 AM -9.4 °F -28.9 °F -14.8 °F 77% 30.04 in 10.0 mi NW 11.5 mph - N/A   Scattered Clouds
7:35 AM -9.4 °F -29.8 °F -14.8 °F 77% 30.05 in 10.0 mi NW 12.7 mph 17.3 mph N/A   Scattered Clouds
7:55 AM -9.4 °F -28.9 °F -14.8 °F 77% 30.04 in 10.0 mi NW 11.5 mph 17.3 mph N/A   Clear
8:15 AM -9.4 °F -30.6 °F -13.0 °F 84% 30.05 in 10.0 mi NW 13.8 mph 20.7 mph N/A   Partly Cloudy
8:35 AM -7.6 °F -29.1 °F -13.0 °F 77% 30.07 in 10.0 mi NW 15.0 mph 21.9 mph N/A   Partly Cloudy
8:55 AM -7.6 °F -29.8 °F -13.0 °F 77% 30.07 in 10.0 mi WNW 16.1 mph - N/A   Clear
9:15 AM -7.6 °F -29.1 °F -13.0 °F 77% 30.09 in 10.0 mi NW 15.0 mph - N/A   Clear
9:35 AM -7.6 °F -29.8 °F -13.0 °F 77% 30.09 in 10.0 mi NW 16.1 mph 24.2 mph N/A   Clear
9:55 AM -7.6 °F -29.1 °F -13.0 °F 77% 30.09 in 10.0 mi NW 15.0 mph 21.9 mph N/A   Clear
10:15 AM -7.6 °F -26.6 °F -13.0 °F 77% 30.10 in 10.0 mi NW 11.5 mph 20.7 mph N/A   Clear
10:35 AM -7.6 °F -29.8 °F -13.0 °F 77% 30.12 in 10.0 mi WNW 16.1 mph 23.0 mph N/A   Clear
10:55 AM -7.6 °F -28.3 °F -13.0 °F 77% 30.11 in 10.0 mi NW 13.8 mph 21.9 mph N/A   Clear
11:15 AM -5.8 °F -29.4 °F -13.0 °F 71% 30.12 in 10.0 mi NW 19.6 mph 24.2 mph N/A   Clear
11:35 AM -5.8 °F -27.5 °F -13.0 °F 71% 30.13 in 10.0 mi NW 16.1 mph 23.0 mph N/A   Clear
11:55 AM -4.0 °F -25.8 °F -13.0 °F 65% 30.12 in 10.0 mi NW 17.3 mph 26.5 mph N/A   Clear
12:15 PM -4.0 °F -27.0 °F -13.0 °F 65% 30.12 in 10.0 mi NW 19.6 mph 25.3 mph N/A   Clear
12:35 PM -4.0 °F -26.4 °F -13.0 °F 65% 30.12 in 10.0 mi NW 18.4 mph 29.9 mph N/A   Clear
12:55 PM -5.8 °F -30.5 °F -14.8 °F 65% 30.13 in 10.0 mi NW 21.9 mph 27.6 mph N/A   Clear
1:15 PM -5.8 °F -29.9 °F -14.8 °F 65% 30.13 in 10.0 mi NW 20.7 mph 31.1 mph N/A   Clear
1:35 PM -5.8 °F -29.4 °F -13.0 °F 71% 30.13 in 10.0 mi NW 19.6 mph 27.6 mph N/A   Clear
1:55 PM -5.8 °F -29.9 °F -13.0 °F 71% 30.12 in 10.0 mi NW 20.7 mph 26.5 mph N/A   Clear
2:15 PM -4.0 °F -26.4 °F -13.0 °F 65% 30.14 in 10.0 mi NW 18.4 mph 27.6 mph N/A   Clear
2:35 PM -4.0 °F -24.5 °F -13.0 °F 65% 30.15 in 10.0 mi NW 15.0 mph 25.3 mph N/A   Clear
2:55 PM -4.0 °F -26.4 °F -13.0 °F 65% 30.16 in 10.0 mi WNW 18.4 mph 27.6 mph N/A   Clear
3:15 PM -4.0 °F -25.8 °F -13.0 °F 65% 30.16 in 10.0 mi NW 17.3 mph 26.5 mph N/A   Clear
3:35 PM -4.0 °F -26.4 °F -13.0 °F 65% 30.16 in 10.0 mi NW 18.4 mph 25.3 mph N/A   Clear
3:55 PM -4.0 °F -25.2 °F -13.0 °F 65% 30.17 in 10.0 mi WNW 16.1 mph - N/A   Clear
4:15 PM -4.0 °F -25.2 °F -13.0 °F 65% 30.18 in 10.0 mi WNW 16.1 mph 21.9 mph N/A   Clear
4:35 PM -5.8 °F -26.0 °F -13.0 °F 71% 30.18 in 10.0 mi WNW 13.8 mph 21.9 mph N/A   Clear
4:55 PM -5.8 °F -24.4 °F -13.0 °F 71% 30.18 in 10.0 mi WNW 11.5 mph - N/A   Clear
5:15 PM -7.6 °F -27.5 °F -13.0 °F 77% 30.18 in 10.0 mi WNW 12.7 mph - N/A   Clear
5:35 PM -7.6 °F -26.6 °F -13.0 °F 77% 30.19 in 10.0 mi WNW 11.5 mph 17.3 mph N/A   Clear
5:55 PM -7.6 °F -24.6 °F -14.8 °F 71% 30.19 in 10.0 mi WNW 9.2 mph - N/A   Clear
6:15 PM -7.6 °F -24.6 °F -13.0 °F 77% 30.19 in 10.0 mi WNW 9.2 mph - N/A   Clear
6:35 PM -9.4 °F -27.9 °F -14.8 °F 77% 30.19 in 10.0 mi WNW 10.4 mph - N/A   Clear
6:55 PM -9.4 °F -27.9 °F -14.8 °F 77% 30.19 in 10.0 mi WNW 10.4 mph - N/A   Partly Cloudy
7:15 PM -9.4 °F -29.8 °F -16.6 °F 71% 30.20 in 10.0 mi WNW 12.7 mph - N/A   Scattered Clouds
7:35 PM -9.4 °F -31.4 °F -16.6 °F 71% 30.20 in 10.0 mi WNW 15.0 mph 19.6 mph N/A Snow Light Snow
7:55 PM -9.4 °F -31.4 °F -16.6 °F 71% 30.20 in 10.0 mi WNW 15.0 mph 20.7 mph N/A   Overcast
8:15 PM -9.4 °F -32.1 °F -16.6 °F 71% 30.20 in 10.0 mi NW 16.1 mph 21.9 mph N/A   Scattered Clouds
8:35 PM -11.2 °F -33.7 °F -16.6 °F 77% 30.20 in 10.0 mi NW 15.0 mph - N/A   Partly Cloudy
8:55 PM -11.2 °F -29.0 °F -16.6 °F 77% 30.20 in 10.0 mi WNW 9.2 mph - N/A   Partly Cloudy
9:15 PM -11.2 °F -30.1 °F -16.6 °F 77% 30.20 in 10.0 mi WNW 10.4 mph - N/A   Scattered Clouds
9:35 PM -11.2 °F -33.7 °F -16.6 °F 77% 30.19 in 10.0 mi WNW 15.0 mph - N/A   Partly Cloudy
9:55 PM -11.2 °F -36.4 °F -16.6 °F 77% 30.19 in 10.0 mi WNW 19.6 mph 25.3 mph N/A   Clear
10:15 PM -9.4 °F -35.2 °F -16.6 °F 71% 30.18 in 10.0 mi WNW 21.9 mph 28.8 mph N/A   Clear
10:35 PM -11.2 °F -36.4 °F -16.6 °F 77% 30.18 in 10.0 mi WNW 19.6 mph 26.5 mph N/A   Mostly Cloudy
10:55 PM -11.2 °F -35.8 °F -16.6 °F 77% 30.19 in 10.0 mi WNW 18.4 mph 25.3 mph N/A   Overcast
11:15 PM -11.2 °F -35.2 °F -18.4 °F 70% 30.19 in 10.0 mi NW 17.3 mph 23.0 mph N/A   Overcast
11:35 PM -11.2 °F -33.7 °F -18.4 °F 70% 30.20 in 10.0 mi NW 15.0 mph 23.0 mph N/A   Overcast
11:55 PM -11.2 °F -32.9 °F -18.4 °F 70% 30.20 in 10.0 mi WNW 13.8 mph 21.9 mph N/A   Overcast